Time,TemperatureF,DewpointF,PressureIn,WindDirection,WindDirectionDegrees,WindSpeedMPH,WindSpeedGustMPH,Humidity,HourlyPrecipIn,Conditions,Clouds,dailyrainin,SoftwareType,DateUTC
2013-12-16 00:01:00,14.7,9.1,29.66,SSE,166,0.0,0.0,78,0.00,,,0.00,VWS V14.01,2013-12-16 05:01:00,
2013-12-16 00:06:00,14.7,9.1,29.66,SSE,166,0.0,0.0,78,0.00,,,0.00,VWS V14.01,2013-12-16 05:06:00,
2013-12-16 00:12:00,14.7,9.1,29.66,SSE,166,0.0,0.0,78,0.00,,,0.00,VWS V14.01,2013-12-16 05:12:00,
2013-12-16 00:17:00,14.7,9.1,29.66,SSE,166,0.0,0.0,78,0.00,,,0.00,VWS V14.01,2013-12-16 05:17:00,
2013-12-16 00:22:00,14.5,8.9,29.66,SSE,166,0.0,0.0,78,0.00,,,0.00,VWS V14.01,2013-12-16 05:22:00,
2013-12-16 00:27:00,14.5,8.9,29.63,SSE,166,0.0,0.0,78,0.00,,,0.00,VWS V14.01,2013-12-16 05:27:00,
2013-12-16 00:32:00,14.5,8.9,29.63,SSE,166,0.0,0.0,78,0.00,,,0.00,VWS V14.01,2013-12-16 05:32:00,
2013-12-16 00:37:00,14.5,8.9,29.63,SSE,166,0.0,0.0,78,0.00,,,0.00,VWS V14.01,2013-12-16 05:37:00,
2013-12-16 00:42:00,14.5,8.9,29.63,SSE,166,0.0,0.0,78,0.00,,,0.00,VWS V14.01,2013-12-16 05:42:00,
2013-12-16 00:47:00,14.4,8.8,29.63,SSE,166,0.0,0.0,78,0.00,,,0.00,VWS V14.01,2013-12-16 05:47:00,
2013-12-16 00:52:00,14.4,8.8,29.63,SSE,166,0.0,0.0,78,0.00,,,0.00,VWS V14.01,2013-12-16 05:52:00,
2013-12-16 00:57:00,14.2,8.6,29.66,SSE,166,0.0,0.0,78,0.00,,,0.00,VWS V14.01,2013-12-16 05:57:00,
2013-12-16 01:02:00,14.2,8.6,29.66,SSE,166,0.0,0.0,78,0.00,,,0.00,VWS V14.01,2013-12-16 06:02:00,
2013-12-16 01:07:00,14.2,8.6,29.66,SSE,166,0.0,0.0,78,0.00,,,0.00,VWS V14.01,2013-12-16 06:07:00,
2013-12-16 01:12:00,14.2,8.6,29.66,SSE,166,0.0,0.0,78,0.00,,,0.00,VWS V14.01,2013-12-16 06:12:00,
2013-12-16 01:17:00,14.2,8.6,29.66,SSE,166,0.0,0.0,78,0.00,,,0.00,VWS V14.01,2013-12-16 06:17:00,
2013-12-16 01:22:00,13.8,8.2,29.66,SSE,166,0.0,0.0,78,0.00,,,0.00,VWS V14.01,2013-12-16 06:22:00,
2013-12-16 01:27:00,13.8,8.2,29.66,SSE,166,0.0,0.0,78,0.00,,,0.00,VWS V14.01,2013-12-16 06:27:00,
2013-12-16 01:32:00,13.8,8.2,29.66,SSE,166,0.0,0.0,78,0.00,,,0.00,VWS V14.01,2013-12-16 06:32:00,
2013-12-16 01:37:00,14.4,9.1,29.66,SSE,166,0.0,0.0,79,0.00,,,0.00,VWS V14.01,2013-12-16 06:37:00,
2013-12-16 01:42:00,14.4,9.1,29.69,South,169,3.6,3.6,79,0.00,,,0.00,VWS V14.01,2013-12-16 06:42:00,
2013-12-16 01:47:00,14.4,9.1,29.69,South,180,4.0,4.0,79,0.00,,,0.00,VWS V14.01,2013-12-16 06:47:00,
2013-12-16 01:52:00,14.4,9.1,29.69,South,176,0.0,0.0,79,0.00,,,0.00,VWS V14.01,2013-12-16 06:52:00,
2013-12-16 01:57:00,15.1,9.8,29.69,SE,139,4.9,4.9,79,0.00,,,0.00,VWS V14.01,2013-12-16 06:57:00,
2013-12-16 02:02:00,15.1,9.8,29.69,SSE,167,0.0,0.0,79,0.00,,,0.00,VWS V14.01,2013-12-16 07:02:00,
2013-12-16 02:07:00,15.1,9.8,29.69,SSE,164,0.0,4.0,79,0.00,,,0.00,VWS V14.01,2013-12-16 07:07:00,
2013-12-16 02:12:00,15.1,9.8,29.69,WSW,239,0.0,0.0,79,0.00,,,0.00,VWS V14.01,2013-12-16 07:12:00,
2013-12-16 02:17:00,15.1,9.8,29.69,SSW,192,3.6,4.0,79,0.00,,,0.00,VWS V14.01,2013-12-16 07:17:00,
2013-12-16 02:22:00,15.1,10.0,29.69,South,173,3.6,3.6,80,0.00,,,0.00,VWS V14.01,2013-12-16 07:22:00,
2013-12-16 02:27:00,15.1,10.0,29.72,SW,215,4.9,5.4,80,0.00,,,0.00,VWS V14.01,2013-12-16 07:27:00,
2013-12-16 02:32:00,15.1,10.0,29.72,SW,233,2.7,3.6,80,0.00,,,0.00,VWS V14.01,2013-12-16 07:32:00,
2013-12-16 02:37:00,15.1,10.0,29.72,South,169,4.0,4.0,80,0.00,,,0.00,VWS V14.01,2013-12-16 07:37:00,
2013-12-16 02:42:00,15.1,10.0,29.72,SSE,167,0.0,0.0,80,0.00,,,0.00,VWS V14.01,2013-12-16 07:42:00,
2013-12-16 02:47:00,15.1,10.0,29.72,SSE,160,0.0,2.7,80,0.00,,,0.00,VWS V14.01,2013-12-16 07:47:00,
2013-12-16 02:52:00,14.5,9.2,29.72,SSW,203,4.0,4.0,79,0.00,,,0.00,VWS V14.01,2013-12-16 07:52:00,
2013-12-16 02:57:00,14.5,9.2,29.72,East,93,4.9,4.9,79,0.00,,,0.00,VWS V14.01,2013-12-16 07:57:00,
2013-12-16 03:02:00,14.5,9.2,29.72,South,176,4.0,4.0,79,0.00,,,0.00,VWS V14.01,2013-12-16 08:02:00,
2013-12-16 03:07:00,14.2,8.9,29.72,South,172,3.6,4.0,79,0.00,,,0.00,VWS V14.01,2013-12-16 08:07:00,
2013-12-16 03:12:00,14.2,8.9,29.72,NNW,333,0.0,0.0,79,0.00,,,0.00,VWS V14.01,2013-12-16 08:12:00,
2013-12-16 03:17:00,14.2,8.9,29.75,WNW,290,5.8,5.8,79,0.00,,,0.00,VWS V14.01,2013-12-16 08:17:00,
2013-12-16 03:22:00,14.2,8.9,29.75,SW,222,0.0,5.8,79,0.00,,,0.00,VWS V14.01,2013-12-16 08:22:00,
2013-12-16 03:27:00,14.2,8.9,29.75,SW,232,0.0,5.8,79,0.00,,,0.00,VWS V14.01,2013-12-16 08:27:00,
2013-12-16 03:32:00,14.2,8.9,29.75,NW,304,5.4,5.4,79,0.00,,,0.00,VWS V14.01,2013-12-16 08:32:00,
2013-12-16 03:37:00,14.2,8.9,29.75,NE,39,2.7,5.4,79,0.00,,,0.00,VWS V14.01,2013-12-16 08:37:00,
2013-12-16 03:42:00,14.2,8.9,29.75,North,353,3.1,3.1,79,0.00,,,0.00,VWS V14.01,2013-12-16 08:42:00,
2013-12-16 03:48:00,14.2,8.9,29.75,WSW,248,2.2,3.1,79,0.00,,,0.00,VWS V14.01,2013-12-16 08:48:00,
2013-12-16 03:53:00,10.8,5.5,29.75,WSW,248,0.0,2.2,79,0.00,,,0.00,VWS V14.01,2013-12-16 08:53:00,
2013-12-16 03:58:00,10.8,5.5,29.75,WSW,240,0.0,2.2,79,0.00,,,0.00,VWS V14.01,2013-12-16 08:58:00,
2013-12-16 04:03:00,10.8,5.5,29.75,South,175,5.8,5.8,79,0.00,,,0.00,VWS V14.01,2013-12-16 09:03:00,
2013-12-16 04:08:00,10.8,5.5,29.75,SSW,211,0.0,5.8,79,0.00,,,0.00,VWS V14.01,2013-12-16 09:08:00,
2013-12-16 04:13:00,10.8,5.5,29.75,West,259,0.0,0.0,79,0.00,,,0.00,VWS V14.01,2013-12-16 09:13:00,
2013-12-16 04:18:00,10.8,5.5,29.78,NW,309,2.7,3.6,79,0.00,,,0.00,VWS V14.01,2013-12-16 09:18:00,
2013-12-16 04:23:00,10.8,5.5,29.78,WNW,303,4.0,4.0,79,0.00,,,0.00,VWS V14.01,2013-12-16 09:23:00,
2013-12-16 04:28:00,10.8,5.5,29.78,SW,232,2.7,4.0,79,0.00,,,0.00,VWS V14.01,2013-12-16 09:28:00,
2013-12-16 04:33:00,10.8,5.5,29.78,NNE,28,3.1,3.1,79,0.00,,,0.00,VWS V14.01,2013-12-16 09:33:00,
2013-12-16 04:38:00,10.8,5.5,29.78,SSE,151,3.1,3.1,79,0.00,,,0.00,VWS V14.01,2013-12-16 09:38:00,
2013-12-16 04:43:00,10.8,5.5,29.78,NW,321,2.2,2.2,79,0.00,,,0.00,VWS V14.01,2013-12-16 09:43:00,
2013-12-16 04:48:00,8.1,2.9,29.78,NW,321,2.2,2.2,79,0.00,,,0.00,VWS V14.01,2013-12-16 09:48:00,
2013-12-16 04:53:00,8.1,2.9,29.78,NW,315,4.0,4.9,79,0.00,,OVC014,0.00,VWS V14.01,2013-12-16 09:53:00,
2013-12-16 04:58:00,8.1,2.9,29.78,NW,315,4.0,4.9,79,0.00,,OVC014,0.00,VWS V14.01,2013-12-16 09:58:00,
2013-12-16 05:03:00,7.7,2.6,29.78,SW,225,0.0,0.0,79,0.00,,OVC014,0.00,VWS V14.01,2013-12-16 10:03:00,
2013-12-16 05:08:00,7.7,2.6,29.78,West,275,0.0,0.0,79,0.00,,OVC014,0.00,VWS V14.01,2013-12-16 10:08:00,
2013-12-16 05:13:00,7.2,2.0,29.81,West,275,0.0,0.0,79,0.00,,OVC014,0.00,VWS V14.01,2013-12-16 10:13:00,
2013-12-16 05:18:00,7.0,1.9,29.81,West,265,0.0,0.0,79,0.00,,OVC014,0.00,VWS V14.01,2013-12-16 10:18:00,
2013-12-16 05:23:00,6.8,1.7,29.81,West,265,0.0,0.0,79,0.00,,OVC014,0.00,VWS V14.01,2013-12-16 10:23:00,
2013-12-16 05:28:00,6.8,1.7,29.81,NW,316,0.0,0.0,79,0.00,,OVC014,0.00,VWS V14.01,2013-12-16 10:28:00,
2013-12-16 05:33:00,6.3,1.1,29.81,NW,316,0.0,0.0,79,0.00,,OVC014,0.00,VWS V14.01,2013-12-16 10:33:00,
2013-12-16 05:38:00,5.9,0.8,29.81,NW,316,0.0,0.0,79,0.00,,OVC014,0.00,VWS V14.01,2013-12-16 10:38:00,
2013-12-16 05:43:00,5.9,0.8,29.81,NW,316,0.0,0.0,79,0.00,,OVC012,0.00,VWS V14.01,2013-12-16 10:43:00,
2013-12-16 05:48:00,5.4,0.3,29.81,SW,222,0.0,0.0,79,0.00,,OVC012,0.00,VWS V14.01,2013-12-16 10:48:00,
2013-12-16 05:53:00,5.4,0.3,29.81,NW,310,0.0,0.0,79,0.00,,OVC012,0.00,VWS V14.01,2013-12-16 10:53:00,
2013-12-16 05:58:00,4.8,-0.2,29.84,NW,310,0.0,0.0,79,0.00,,OVC012,0.00,VWS V14.01,2013-12-16 10:58:00,
2013-12-16 06:03:00,4.5,-0.6,29.84,South,176,0.0,0.0,79,0.00,,OVC012,0.00,VWS V14.01,2013-12-16 11:03:00,
2013-12-16 06:08:00,4.5,-0.6,29.84,South,176,0.0,0.0,79,0.00,,OVC012,0.00,VWS V14.01,2013-12-16 11:08:00,
2013-12-16 06:13:00,4.1,-0.9,29.84,South,176,0.0,0.0,79,0.00,,OVC012,0.00,VWS V14.01,2013-12-16 11:13:00,
2013-12-16 06:18:00,4.1,-0.9,29.84,South,176,0.0,0.0,79,0.00,,OVC012,0.00,VWS V14.01,2013-12-16 11:18:00,
2013-12-16 06:23:00,3.9,-1.1,29.84,South,176,0.0,0.0,79,0.00,,OVC012,0.00,VWS V14.01,2013-12-16 11:23:00,
2013-12-16 06:28:00,3.9,-1.1,29.84,South,176,0.0,0.0,79,0.00,,OVC012,0.00,VWS V14.01,2013-12-16 11:28:00,
2013-12-16 06:33:00,3.9,-1.1,29.84,WSW,238,0.0,0.0,79,0.00,,OVC012,0.00,VWS V14.01,2013-12-16 11:33:00,
2013-12-16 06:39:00,3.9,-1.1,29.84,NW,320,0.0,0.0,79,0.00,,OVC012,0.00,VWS V14.01,2013-12-16 11:39:00,
2013-12-16 06:44:00,3.9,-1.1,29.84,NW,320,0.0,0.0,79,0.00,,SCT010,0.00,VWS V14.01,2013-12-16 11:44:00,
2013-12-16 06:49:00,3.7,-1.3,29.84,WSW,242,0.0,0.0,79,0.00,,SCT010,0.00,VWS V14.01,2013-12-16 11:49:00,
2013-12-16 06:54:00,3.7,-1.3,29.84,WSW,242,0.0,0.0,79,0.00,,SCT010,0.00,VWS V14.01,2013-12-16 11:54:00,
2013-12-16 06:59:00,3.4,-1.6,29.84,NNW,343,2.7,2.7,79,0.00,,SCT010,0.00,VWS V14.01,2013-12-16 11:59:00,
2013-12-16 07:04:00,3.0,-2.0,29.84,WNW,289,0.0,0.0,79,0.00,,SCT010,0.00,VWS V14.01,2013-12-16 12:04:00,
2013-12-16 07:09:00,3.0,-2.0,29.87,NW,324,0.0,0.0,79,0.00,,SCT010,0.00,VWS V14.01,2013-12-16 12:09:00,
2013-12-16 07:14:00,2.7,-2.4,29.87,NW,324,0.0,0.0,79,0.00,,SCT010,0.00,VWS V14.01,2013-12-16 12:14:00,
2013-12-16 07:19:00,2.7,-2.4,29.87,NW,324,0.0,0.0,79,0.00,,SCT010,0.00,VWS V14.01,2013-12-16 12:19:00,
2013-12-16 07:24:00,2.1,-2.9,29.87,NW,324,0.0,0.0,79,0.00,,SCT010,0.00,VWS V14.01,2013-12-16 12:24:00,
2013-12-16 07:29:00,2.1,-2.9,29.87,NW,324,0.0,0.0,79,0.00,,SCT010,0.00,VWS V14.01,2013-12-16 12:29:00,
2013-12-16 07:34:00,1.8,-3.2,29.87,North,357,0.0,0.0,79,0.00,,SCT010,0.00,VWS V14.01,2013-12-16 12:34:00,
2013-12-16 07:39:00,1.6,-3.4,29.87,North,357,0.0,0.0,79,0.00,,SCT010,0.00,VWS V14.01,2013-12-16 12:39:00,
2013-12-16 07:44:00,1.6,-3.4,29.87,North,357,0.0,0.0,79,0.00,,SCT010,0.00,VWS V14.01,2013-12-16 12:44:00,
2013-12-16 07:49:00,1.2,-3.8,29.87,North,357,0.0,0.0,79,0.00,,SCT010,0.00,VWS V14.01,2013-12-16 12:49:00,
2013-12-16 07:54:00,1.2,-3.8,29.87,North,357,0.0,0.0,79,0.00,,SCT009,0.00,VWS V14.01,2013-12-16 12:54:00,
2013-12-16 07:59:00,0.7,-4.3,29.87,North,357,0.0,0.0,79,0.00,,SCT009,0.00,VWS V14.01,2013-12-16 12:59:00,
2013-12-16 08:04:00,0.3,-4.6,29.87,North,357,0.0,0.0,79,0.00,,SCT009,0.00,VWS V14.01,2013-12-16 13:04:00,
2013-12-16 08:09:00,0.0,-5.0,29.87,North,357,0.0,0.0,79,0.00,,SCT009,0.00,VWS V14.01,2013-12-16 13:09:00,
2013-12-16 08:14:00,0.0,-5.0,29.87,North,357,0.0,0.0,79,0.00,,SCT009,0.00,VWS V14.01,2013-12-16 13:14:00,
2013-12-16 08:19:00,0.0,-5.0,29.87,North,357,0.0,0.0,79,0.00,,SCT009,0.00,VWS V14.01,2013-12-16 13:19:00,
2013-12-16 08:24:00,0.1,-4.8,29.87,North,357,0.0,0.0,79,0.00,,SCT009,0.00,VWS V14.01,2013-12-16 13:24:00,
2013-12-16 08:29:00,0.1,-4.8,29.87,North,357,0.0,0.0,79,0.00,,SCT009,0.00,VWS V14.01,2013-12-16 13:29:00,
2013-12-16 08:34:00,1.6,-3.4,29.87,North,357,0.0,0.0,79,0.00,,SCT009,0.00,VWS V14.01,2013-12-16 13:34:00,
2013-12-16 08:39:00,3.0,-2.0,29.87,North,357,0.0,0.0,79,0.00,,SCT009,0.00,VWS V14.01,2013-12-16 13:39:00,
2013-12-16 08:44:00,4.1,-0.9,29.90,North,357,0.0,0.0,79,0.00,,CLR,0.00,VWS V14.01,2013-12-16 13:44:00,
2013-12-16 08:49:00,4.5,-0.6,29.90,North,357,0.0,0.0,79,0.00,,CLR,0.00,VWS V14.01,2013-12-16 13:49:00,
2013-12-16 08:54:00,5.5,0.4,29.90,North,357,0.0,0.0,79,0.00,,CLR,0.00,VWS V14.01,2013-12-16 13:54:00,
2013-12-16 08:59:00,5.7,0.6,29.90,North,357,0.0,0.0,79,0.00,,CLR,0.00,VWS V14.01,2013-12-16 13:59:00,
2013-12-16 09:04:00,6.8,1.7,29.90,North,357,0.0,0.0,79,0.00,,CLR,0.00,VWS V14.01,2013-12-16 14:04:00,
2013-12-16 09:10:00,7.2,2.0,29.90,North,357,0.0,0.0,79,0.00,,CLR,0.00,VWS V14.01,2013-12-16 14:10:00,
2013-12-16 09:15:00,7.3,2.2,29.90,North,357,0.0,0.0,79,0.00,,CLR,0.00,VWS V14.01,2013-12-16 14:15:00,
2013-12-16 09:20:00,7.3,2.2,29.90,North,357,0.0,0.0,79,0.00,,CLR,0.00,VWS V14.01,2013-12-16 14:20:00,
2013-12-16 09:25:00,7.3,2.2,29.90,North,357,0.0,0.0,79,0.00,,CLR,0.00,VWS V14.01,2013-12-16 14:25:00,
2013-12-16 09:30:00,7.7,2.6,29.90,North,357,0.0,0.0,79,0.00,,CLR,0.00,VWS V14.01,2013-12-16 14:30:00,
2013-12-16 09:35:00,7.5,2.4,29.90,North,357,0.0,0.0,79,0.00,,CLR,0.00,VWS V14.01,2013-12-16 14:35:00,
2013-12-16 09:40:00,7.3,2.2,29.90,North,357,0.0,0.0,79,0.00,,CLR,0.00,VWS V14.01,2013-12-16 14:40:00,
2013-12-16 09:45:00,7.3,2.2,29.90,North,357,0.0,0.0,79,0.00,,,0.00,VWS V14.01,2013-12-16 14:45:00,
2013-12-16 09:50:00,7.2,2.0,29.90,North,357,0.0,0.0,79,0.00,,,0.00,VWS V14.01,2013-12-16 14:50:00,
2013-12-16 09:55:00,7.0,1.9,29.90,North,357,0.0,0.0,79,0.00,,,0.00,VWS V14.01,2013-12-16 14:55:00,
2013-12-16 10:00:00,7.0,1.9,29.93,North,357,0.0,0.0,79,0.00,,,0.00,VWS V14.01,2013-12-16 15:00:00,
2013-12-16 10:05:00,6.8,1.7,29.93,North,357,0.0,0.0,79,0.00,,,0.00,VWS V14.01,2013-12-16 15:05:00,
2013-12-16 10:10:00,7.0,1.9,29.93,North,357,0.0,0.0,79,0.00,,,0.00,VWS V14.01,2013-12-16 15:10:00,
2013-12-16 10:15:00,7.0,1.9,29.93,North,357,0.0,0.0,79,0.00,,,0.00,VWS V14.01,2013-12-16 15:15:00,
2013-12-16 10:20:00,7.2,2.0,29.93,North,357,0.0,0.0,79,0.00,,,0.00,VWS V14.01,2013-12-16 15:20:00,
2013-12-16 10:25:00,7.3,2.2,29.93,North,357,0.0,0.0,79,0.00,,,0.00,VWS V14.01,2013-12-16 15:25:00,
2013-12-16 10:30:00,7.3,2.2,29.93,North,357,0.0,0.0,79,0.00,,,0.00,VWS V14.01,2013-12-16 15:30:00,
2013-12-16 10:35:00,7.7,2.6,29.93,North,357,0.0,0.0,79,0.00,,,0.00,VWS V14.01,2013-12-16 15:35:00,
2013-12-16 10:40:00,7.7,2.6,29.93,South,176,2.7,2.7,79,0.00,,SCT013,0.00,VWS V14.01,2013-12-16 15:40:00,
2013-12-16 10:45:00,7.9,2.7,29.93,South,176,2.7,2.7,79,0.00,,SCT013,0.00,VWS V14.01,2013-12-16 15:45:00,
2013-12-16 10:50:00,9.0,3.8,29.93,West,273,2.7,2.7,79,0.00,,SCT013,0.00,VWS V14.01,2013-12-16 15:50:00,
2013-12-16 10:55:00,9.0,3.8,29.93,SSE,147,3.6,4.9,79,0.00,,SCT013,0.00,VWS V14.01,2013-12-16 15:55:00,
2013-12-16 11:00:00,10.9,5.7,29.93,South,183,4.0,4.9,79,0.00,,SCT013,0.00,VWS V14.01,2013-12-16 16:00:00,
2013-12-16 11:05:00,11.5,6.2,29.93,SSW,200,3.6,5.8,79,0.00,,SCT013,0.00,VWS V14.01,2013-12-16 16:05:00,
2013-12-16 11:10:00,11.7,6.4,29.93,SW,220,8.1,8.1,79,0.00,,SCT013,0.00,VWS V14.01,2013-12-16 16:10:00,
2013-12-16 11:15:00,11.7,6.4,29.93,South,183,0.0,8.1,79,0.00,,SCT013,0.00,VWS V14.01,2013-12-16 16:15:00,
2013-12-16 11:20:00,11.7,6.4,29.93,SW,227,3.1,3.1,79,0.00,,SCT013,0.00,VWS V14.01,2013-12-16 16:20:00,
2013-12-16 11:25:00,11.7,6.4,29.93,South,172,0.0,5.4,79,0.00,,SCT013,0.00,VWS V14.01,2013-12-16 16:25:00,
2013-12-16 11:30:00,11.1,5.9,29.93,South,174,5.4,5.4,79,0.00,,SCT013,0.00,VWS V14.01,2013-12-16 16:30:00,
2013-12-16 11:35:00,11.1,5.9,29.93,SSW,196,6.7,8.3,79,0.00,,SCT013,0.00,VWS V14.01,2013-12-16 16:35:00,
2013-12-16 11:40:00,11.1,5.9,29.93,South,190,6.3,6.3,79,0.00,,BKN021,0.00,VWS V14.01,2013-12-16 16:40:00,
2013-12-16 11:45:00,11.1,5.9,29.93,North,357,4.0,6.3,79,0.00,,BKN021,0.00,VWS V14.01,2013-12-16 16:45:00,
2013-12-16 11:50:00,9.5,4.3,29.93,SW,231,3.1,5.8,79,0.00,,SCT023,0.00,VWS V14.01,2013-12-16 16:50:00,
2013-12-16 11:55:00,9.5,4.3,29.93,WSW,238,3.1,5.8,79,0.00,,SCT023,0.00,VWS V14.01,2013-12-16 16:55:00,
2013-12-16 12:01:00,9.5,4.3,29.93,South,179,2.2,2.7,79,0.00,,SCT023,0.00,VWS V14.01,2013-12-16 17:01:00,
2013-12-16 12:06:00,9.5,4.3,29.93,SSE,163,4.0,6.3,79,0.00,,SCT023,0.00,VWS V14.01,2013-12-16 17:06:00,
2013-12-16 12:11:00,9.5,4.3,29.93,SSE,168,4.0,4.0,79,0.00,,SCT023,0.00,VWS V14.01,2013-12-16 17:11:00,
2013-12-16 12:16:00,9.5,4.3,29.93,South,187,4.0,4.0,79,0.00,,SCT023,0.00,VWS V14.01,2013-12-16 17:16:00,
2013-12-16 12:21:00,9.5,4.3,29.93,WSW,238,3.1,3.1,79,0.00,,SCT023,0.00,VWS V14.01,2013-12-16 17:21:00,
2013-12-16 12:26:00,9.5,4.3,29.93,WSW,238,3.1,3.1,79,0.00,,SCT023,0.00,VWS V14.01,2013-12-16 17:26:00,
2013-12-16 12:31:00,9.5,4.3,29.93,SW,225,6.7,6.7,79,0.00,,SCT023,0.00,VWS V14.01,2013-12-16 17:31:00,
2013-12-16 12:36:00,9.7,4.5,29.93,WSW,238,4.0,6.7,79,0.00,,SCT023,0.00,VWS V14.01,2013-12-16 17:36:00,
2013-12-16 12:41:00,9.7,4.5,29.93,WNW,302,5.8,5.8,79,0.00,,BKN070,0.00,VWS V14.01,2013-12-16 17:41:00,
2013-12-16 12:46:00,9.7,4.5,29.93,SSE,155,2.7,5.8,79,0.00,,BKN070,0.00,VWS V14.01,2013-12-16 17:46:00,
2013-12-16 12:51:00,9.7,4.5,29.93,SW,235,3.6,3.6,79,0.00,,BKN070,0.00,VWS V14.01,2013-12-16 17:51:00,
2013-12-16 12:56:00,9.7,4.5,29.93,SSE,165,2.7,9.6,79,0.00,,BKN070,0.00,VWS V14.01,2013-12-16 17:56:00,
2013-12-16 13:01:00,10.2,5.0,29.93,NW,306,3.6,3.6,79,0.00,,BKN070,0.00,VWS V14.01,2013-12-16 18:01:00,
2013-12-16 13:06:00,10.2,5.0,29.93,SSE,155,3.1,3.6,79,0.00,,BKN070,0.00,VWS V14.01,2013-12-16 18:06:00,
2013-12-16 13:11:00,10.2,5.0,29.93,SSW,202,4.9,4.9,79,0.00,,BKN070,0.00,VWS V14.01,2013-12-16 18:11:00,
2013-12-16 13:16:00,10.2,5.0,29.93,SW,223,4.0,4.9,79,0.00,,BKN070,0.00,VWS V14.01,2013-12-16 18:16:00,
2013-12-16 13:21:00,10.2,5.0,29.93,WSW,239,3.1,3.1,79,0.00,,BKN070,0.00,VWS V14.01,2013-12-16 18:21:00,
2013-12-16 13:26:00,10.9,5.7,29.93,South,176,3.6,4.0,79,0.00,,BKN070,0.00,VWS V14.01,2013-12-16 18:26:00,
2013-12-16 13:31:00,10.9,5.7,29.93,South,187,2.2,2.2,79,0.00,,BKN070,0.00,VWS V14.01,2013-12-16 18:31:00,
2013-12-16 13:36:00,11.8,6.6,29.93,SSE,158,5.8,6.3,79,0.00,,BKN070,0.00,VWS V14.01,2013-12-16 18:36:00,
2013-12-16 13:41:00,11.8,6.6,29.93,WSW,243,2.7,3.1,79,0.00,,CLR,0.00,VWS V14.01,2013-12-16 18:41:00,
2013-12-16 13:46:00,11.8,6.6,29.93,SSW,202,5.8,5.8,79,0.00,,CLR,0.00,VWS V14.01,2013-12-16 18:46:00,
2013-12-16 13:51:00,11.8,6.6,29.93,South,169,4.0,4.0,79,0.00,,CLR,0.00,VWS V14.01,2013-12-16 18:51:00,
2013-12-16 13:56:00,11.8,6.6,29.93,SSW,201,5.4,5.4,79,0.00,,CLR,0.00,VWS V14.01,2013-12-16 18:56:00,
2013-12-16 14:01:00,11.8,6.6,29.93,WSW,244,2.7,4.9,79,0.00,,CLR,0.00,VWS V14.01,2013-12-16 19:01:00,
2013-12-16 14:07:00,9.7,4.5,29.93,SW,235,2.7,4.9,79,0.00,,CLR,0.00,VWS V14.01,2013-12-16 19:07:00,
2013-12-16 14:12:00,9.5,4.3,29.93,SSW,210,3.6,4.9,79,0.00,,CLR,0.00,VWS V14.01,2013-12-16 19:12:00,
2013-12-16 14:17:00,9.5,4.3,29.93,NW,324,5.8,7.2,79,0.00,,CLR,0.00,VWS V14.01,2013-12-16 19:17:00,
2013-12-16 14:22:00,9.5,4.3,29.93,NW,310,2.7,3.6,79,0.00,,CLR,0.00,VWS V14.01,2013-12-16 19:22:00,
2013-12-16 14:27:00,9.5,4.3,29.93,SW,219,3.1,3.6,79,0.00,,CLR,0.00,VWS V14.01,2013-12-16 19:27:00,
2013-12-16 14:32:00,9.5,4.3,29.93,WSW,246,6.3,6.3,79,0.00,,CLR,0.00,VWS V14.01,2013-12-16 19:32:00,
2013-12-16 14:37:00,9.5,4.3,29.96,SSW,194,2.7,6.3,79,0.00,,CLR,0.00,VWS V14.01,2013-12-16 19:37:00,
2013-12-16 14:42:00,9.5,4.3,29.96,SE,130,4.0,4.0,79,0.00,,CLR,0.00,VWS V14.01,2013-12-16 19:42:00,
2013-12-16 14:47:00,9.5,4.3,29.96,SSW,213,3.1,4.9,79,0.00,,CLR,0.00,VWS V14.01,2013-12-16 19:47:00,
2013-12-16 14:52:00,9.5,4.3,29.96,WNW,301,0.0,3.1,79,0.00,,CLR,0.00,VWS V14.01,2013-12-16 19:52:00,
2013-12-16 14:57:00,9.5,4.3,29.96,SSW,194,4.0,4.0,79,0.00,,CLR,0.00,VWS V14.01,2013-12-16 19:57:00,
2013-12-16 15:02:00,9.5,4.3,29.96,South,176,5.4,5.4,79,0.00,,CLR,0.00,VWS V14.01,2013-12-16 20:02:00,
2013-12-16 15:07:00,9.5,4.3,29.96,South,179,4.9,6.7,79,0.00,,CLR,0.00,VWS V14.01,2013-12-16 20:07:00,
2013-12-16 15:12:00,9.5,4.3,29.96,South,178,4.0,6.3,79,0.00,,CLR,0.00,VWS V14.01,2013-12-16 20:12:00,
2013-12-16 15:17:00,8.6,3.4,29.96,SW,220,0.0,6.3,79,0.00,,CLR,0.00,VWS V14.01,2013-12-16 20:17:00,
2013-12-16 15:22:00,8.6,3.4,29.96,South,177,3.1,6.3,79,0.00,,CLR,0.00,VWS V14.01,2013-12-16 20:22:00,
2013-12-16 15:27:00,8.1,2.9,29.96,SW,229,3.6,6.3,79,0.00,,CLR,0.00,VWS V14.01,2013-12-16 20:27:00,
2013-12-16 15:32:00,7.9,2.7,29.96,SE,127,0.0,0.0,79,0.00,,CLR,0.00,VWS V14.01,2013-12-16 20:32:00,
2013-12-16 15:37:00,7.9,2.7,29.96,NW,316,2.7,4.5,79,0.00,,CLR,0.00,VWS V14.01,2013-12-16 20:37:00,
2013-12-16 15:42:00,7.7,2.6,29.96,South,176,0.0,0.0,79,0.00,,CLR,0.00,VWS V14.01,2013-12-16 20:42:00,
2013-12-16 15:47:00,7.7,2.6,29.96,South,176,0.0,0.0,79,0.00,,CLR,0.00,VWS V14.01,2013-12-16 20:47:00,
2013-12-16 15:52:00,7.7,2.6,29.98,SSE,162,0.0,0.0,79,0.00,,CLR,0.00,VWS V14.01,2013-12-16 20:52:00,
2013-12-16 15:57:00,7.3,2.2,29.98,WSW,239,0.0,0.0,79,0.00,,CLR,0.00,VWS V14.01,2013-12-16 20:57:00,
2013-12-16 16:02:00,7.2,2.0,29.98,South,189,0.0,0.0,79,0.00,,CLR,0.00,VWS V14.01,2013-12-16 21:02:00,
2013-12-16 16:07:00,7.0,1.9,29.98,SSW,209,0.0,0.0,79,0.00,,CLR,0.00,VWS V14.01,2013-12-16 21:07:00,
2013-12-16 16:12:00,6.8,1.7,29.98,SSE,155,0.0,0.0,79,0.00,,CLR,0.00,VWS V14.01,2013-12-16 21:12:00,
2013-12-16 16:17:00,6.3,1.1,29.98,South,173,0.0,0.0,79,0.00,,CLR,0.00,VWS V14.01,2013-12-16 21:17:00,
2013-12-16 16:22:00,6.1,1.0,29.98,South,173,0.0,0.0,79,0.00,,CLR,0.00,VWS V14.01,2013-12-16 21:22:00,
2013-12-16 16:27:00,5.9,0.8,29.98,South,172,0.0,0.0,79,0.00,,CLR,0.00,VWS V14.01,2013-12-16 21:27:00,
2013-12-16 16:32:00,5.5,0.4,29.98,South,172,0.0,0.0,79,0.00,,CLR,0.00,VWS V14.01,2013-12-16 21:32:00,
2013-12-16 16:37:00,5.5,0.4,29.98,South,172,0.0,0.0,79,0.00,,CLR,0.00,VWS V14.01,2013-12-16 21:37:00,
2013-12-16 16:42:00,5.4,0.3,29.98,South,186,0.0,0.0,79,0.00,,CLR,0.00,VWS V14.01,2013-12-16 21:42:00,
2013-12-16 16:47:00,5.4,0.3,29.98,SSW,198,0.0,3.1,79,0.00,,CLR,0.00,VWS V14.01,2013-12-16 21:47:00,
2013-12-16 16:53:00,4.8,-0.2,30.01,South,172,0.0,0.0,79,0.00,,CLR,0.00,VWS V14.01,2013-12-16 21:53:00,
2013-12-16 16:58:00,4.5,-0.6,30.01,SSE,163,0.0,0.0,79,0.00,,CLR,0.00,VWS V14.01,2013-12-16 21:58:00,
2013-12-16 17:03:00,4.5,-0.6,30.01,South,178,0.0,0.0,79,0.00,,CLR,0.00,VWS V14.01,2013-12-16 22:03:00,
2013-12-16 17:08:00,4.1,-0.9,30.01,South,174,0.0,0.0,79,0.00,,CLR,0.00,VWS V14.01,2013-12-16 22:08:00,
2013-12-16 17:13:00,4.1,-0.9,30.01,SW,231,0.0,0.0,79,0.00,,CLR,0.00,VWS V14.01,2013-12-16 22:13:00,
2013-12-16 17:18:00,4.1,-0.9,30.01,SW,226,0.0,0.0,79,0.00,,CLR,0.00,VWS V14.01,2013-12-16 22:18:00,
2013-12-16 17:23:00,2.8,-2.2,30.01,SW,226,0.0,0.0,79,0.00,,CLR,0.00,VWS V14.01,2013-12-16 22:23:00,
2013-12-16 17:28:00,2.7,-2.4,30.01,SW,226,0.0,0.0,79,0.00,,CLR,0.00,VWS V14.01,2013-12-16 22:28:00,
2013-12-16 17:33:00,1.9,-3.1,30.01,SW,226,0.0,0.0,79,0.00,,CLR,0.00,VWS V14.01,2013-12-16 22:33:00,
2013-12-16 17:38:00,1.9,-3.1,30.01,SW,226,0.0,0.0,79,0.00,,CLR,0.00,VWS V14.01,2013-12-16 22:38:00,
2013-12-16 17:43:00,0.3,-4.6,30.01,SW,226,0.0,0.0,79,0.00,,CLR,0.00,VWS V14.01,2013-12-16 22:43:00,
2013-12-16 17:48:00,-0.4,-5.3,30.01,SW,226,0.0,0.0,79,0.00,,CLR,0.00,VWS V14.01,2013-12-16 22:48:00,
2013-12-16 17:53:00,-0.6,-5.5,30.01,SW,226,0.0,0.0,79,0.00,,CLR,0.00,VWS V14.01,2013-12-16 22:53:00,
2013-12-16 17:58:00,-1.1,-6.0,30.01,SW,226,0.0,0.0,79,0.00,,CLR,0.00,VWS V14.01,2013-12-16 22:58:00,
2013-12-16 18:03:00,-1.3,-6.2,30.01,SW,226,0.0,0.0,79,0.00,,CLR,0.00,VWS V14.01,2013-12-16 23:03:00,
2013-12-16 18:08:00,-1.8,-6.8,30.01,SW,226,0.0,0.0,79,0.00,,CLR,0.00,VWS V14.01,2013-12-16 23:08:00,
2013-12-16 18:13:00,-1.8,-6.8,30.01,SW,226,0.0,0.0,79,0.00,,CLR,0.00,VWS V14.01,2013-12-16 23:13:00,
2013-12-16 18:18:00,-2.6,-7.4,30.01,SW,226,0.0,0.0,79,0.00,,CLR,0.00,VWS V14.01,2013-12-16 23:18:00,
2013-12-16 18:23:00,-2.6,-7.4,30.04,SW,226,0.0,0.0,79,0.00,,CLR,0.00,VWS V14.01,2013-12-16 23:23:00,
2013-12-16 18:28:00,-2.9,-7.8,30.04,SW,226,0.0,0.0,79,0.00,,CLR,0.00,VWS V14.01,2013-12-16 23:28:00,
2013-12-16 18:33:00,-3.1,-8.0,30.01,SW,226,0.0,0.0,79,0.00,,CLR,0.00,VWS V14.01,2013-12-16 23:33:00,
2013-12-16 18:38:00,-3.1,-8.0,30.01,SW,226,0.0,0.0,79,0.00,,CLR,0.00,VWS V14.01,2013-12-16 23:38:00,
2013-12-16 18:43:00,-3.6,-8.5,30.04,SW,226,0.0,0.0,79,0.00,,CLR,0.00,VWS V14.01,2013-12-16 23:43:00,
2013-12-16 18:48:00,-3.6,-8.5,30.04,SW,226,0.0,0.0,79,0.00,,CLR,0.00,VWS V14.01,2013-12-16 23:48:00,
2013-12-16 18:53:00,-4.4,-9.2,30.04,SW,226,0.0,0.0,79,0.00,,CLR,0.00,VWS V14.01,2013-12-16 23:53:00,
2013-12-16 18:58:00,-4.4,-9.2,30.04,SW,226,0.0,0.0,79,0.00,,CLR,0.00,VWS V14.01,2013-12-16 23:58:00,
2013-12-16 19:03:00,-4.4,-9.2,30.04,SW,226,0.0,0.0,79,0.00,,CLR,0.00,VWS V14.01,2013-12-17 00:03:00,
2013-12-16 19:08:00,-4.7,-9.6,30.04,SW,226,0.0,0.0,79,0.00,,CLR,0.00,VWS V14.01,2013-12-17 00:08:00,
2013-12-16 19:13:00,-4.7,-9.6,30.04,SW,226,0.0,0.0,79,0.00,,CLR,0.00,VWS V14.01,2013-12-17 00:13:00,
2013-12-16 19:19:00,-4.7,-9.6,30.07,SW,226,0.0,0.0,79,0.00,,CLR,0.00,VWS V14.01,2013-12-17 00:19:00,
2013-12-16 19:24:00,-4.7,-9.6,30.07,SW,226,0.0,0.0,79,0.00,,CLR,0.00,VWS V14.01,2013-12-17 00:24:00,
2013-12-16 19:29:00,-5.6,-10.4,30.07,SW,226,0.0,0.0,79,0.00,,CLR,0.00,VWS V14.01,2013-12-17 00:29:00,
2013-12-16 19:34:00,-6.0,-10.8,30.07,SW,226,0.0,0.0,79,0.00,,CLR,0.00,VWS V14.01,2013-12-17 00:34:00,
2013-12-16 19:39:00,-6.0,-10.8,30.07,SW,226,0.0,0.0,79,0.00,,CLR,0.00,VWS V14.01,2013-12-17 00:39:00,
2013-12-16 19:44:00,-6.3,-11.1,30.07,SW,226,0.0,0.0,79,0.00,,CLR,0.00,VWS V14.01,2013-12-17 00:44:00,
2013-12-16 19:49:00,-6.3,-11.1,30.07,SW,226,0.0,0.0,79,0.00,,CLR,0.00,VWS V14.01,2013-12-17 00:49:00,
2013-12-16 19:54:00,-6.7,-11.5,30.07,SW,226,0.0,0.0,79,0.00,,CLR,0.00,VWS V14.01,2013-12-17 00:54:00,
2013-12-16 19:59:00,-6.7,-11.5,30.07,SW,226,0.0,0.0,79,0.00,,CLR,0.00,VWS V14.01,2013-12-17 00:59:00,
2013-12-16 20:04:00,-6.7,-11.5,30.07,SW,226,0.0,0.0,79,0.00,,CLR,0.00,VWS V14.01,2013-12-17 01:04:00,
2013-12-16 20:09:00,-7.6,-12.4,30.07,SW,226,0.0,0.0,79,0.00,,CLR,0.00,VWS V14.01,2013-12-17 01:09:00,
2013-12-16 20:14:00,-7.8,-12.5,30.07,SW,226,0.0,0.0,79,0.00,,CLR,0.00,VWS V14.01,2013-12-17 01:14:00,
2013-12-16 20:19:00,-8.0,-12.7,30.07,SW,226,0.0,0.0,79,0.00,,CLR,0.00,VWS V14.01,2013-12-17 01:19:00,
2013-12-16 20:24:00,-8.0,-12.7,30.07,SW,226,0.0,0.0,79,0.00,,CLR,0.00,VWS V14.01,2013-12-17 01:24:00,
2013-12-16 20:25:00,-8.0,-12.7,30.07,SW,226,0.0,0.0,79,0.00,,CLR,0.00,VWS V14.01,2013-12-17 01:25:00,
2013-12-16 20:30:00,-8.3,-13.1,30.10,SW,226,0.0,0.0,79,0.00,,CLR,0.00,VWS V14.01,2013-12-17 01:30:00,
2013-12-16 20:35:00,-8.3,-13.1,30.10,SW,226,0.0,0.0,79,0.00,,CLR,0.00,VWS V14.01,2013-12-17 01:35:00,
2013-12-16 20:40:00,-8.3,-13.1,30.10,SW,226,0.0,0.0,79,0.00,,CLR,0.00,VWS V14.01,2013-12-17 01:40:00,
2013-12-16 20:45:00,-8.3,-13.1,30.10,SW,226,0.0,0.0,79,0.00,,CLR,0.00,VWS V14.01,2013-12-17 01:45:00,
2013-12-16 20:50:00,-8.3,-13.1,30.10,SW,226,0.0,0.0,79,0.00,,CLR,0.00,VWS V14.01,2013-12-17 01:50:00,
2013-12-16 20:55:00,-8.3,-13.1,30.10,SW,226,0.0,0.0,79,0.00,,CLR,0.00,VWS V14.01,2013-12-17 01:55:00,
2013-12-16 21:00:00,-9.6,-14.3,30.10,SW,226,0.0,0.0,79,0.00,,CLR,0.00,VWS V14.01,2013-12-17 02:00:00,
2013-12-16 21:05:00,-9.6,-14.3,30.10,SW,226,0.0,0.0,79,0.00,,CLR,0.00,VWS V14.01,2013-12-17 02:05:00,
2013-12-16 21:10:00,-10.1,-14.8,30.10,SW,226,0.0,0.0,79,0.00,,CLR,0.00,VWS V14.01,2013-12-17 02:10:00,
2013-12-16 21:15:00,-10.1,-14.8,30.10,SW,226,0.0,0.0,79,0.00,,CLR,0.00,VWS V14.01,2013-12-17 02:15:00,
2013-12-16 21:20:00,-10.5,-15.2,30.10,SW,226,0.0,0.0,79,0.00,,CLR,0.00,VWS V14.01,2013-12-17 02:20:00,
2013-12-16 21:25:00,-10.5,-15.2,30.10,SW,226,0.0,0.0,79,0.00,,CLR,0.00,VWS V14.01,2013-12-17 02:25:00,
2013-12-16 21:30:00,-10.5,-15.2,30.10,SW,226,0.0,0.0,79,0.00,,CLR,0.00,VWS V14.01,2013-12-17 02:30:00,
2013-12-16 21:35:00,-10.5,-15.2,30.10,SW,226,0.0,0.0,79,0.00,,CLR,0.00,VWS V14.01,2013-12-17 02:35:00,
2013-12-16 21:40:00,-10.5,-15.2,30.10,SW,226,0.0,0.0,79,0.00,,CLR,0.00,VWS V14.01,2013-12-17 02:40:00,
2013-12-16 21:45:00,-10.5,-15.2,30.10,SW,226,0.0,0.0,79,0.00,,CLR,0.00,VWS V14.01,2013-12-17 02:45:00,
2013-12-16 21:50:00,-10.5,-15.2,30.10,SW,226,0.0,0.0,79,0.00,,CLR,0.00,VWS V14.01,2013-12-17 02:50:00,
2013-12-16 21:55:00,-10.5,-15.2,30.10,SW,226,0.0,0.0,79,0.00,,CLR,0.00,VWS V14.01,2013-12-17 02:55:00,
2013-12-16 22:00:00,-10.5,-15.2,30.10,SW,226,0.0,0.0,79,0.00,,CLR,0.00,VWS V14.01,2013-12-17 03:00:00,
2013-12-16 22:05:00,-11.9,-16.6,30.10,SW,226,0.0,0.0,79,0.00,,CLR,0.00,VWS V14.01,2013-12-17 03:05:00,
2013-12-16 22:10:00,-11.9,-16.6,30.10,SW,226,0.0,0.0,79,0.00,,CLR,0.00,VWS V14.01,2013-12-17 03:10:00,
2013-12-16 22:16:00,-11.9,-16.6,30.10,SW,226,0.0,0.0,79,0.00,,CLR,0.00,VWS V14.01,2013-12-17 03:16:00,
2013-12-16 22:21:00,-12.5,-17.1,30.10,SW,226,0.0,0.0,79,0.00,,CLR,0.00,VWS V14.01,2013-12-17 03:21:00,
2013-12-16 22:26:00,-12.8,-17.5,30.10,SW,226,0.0,0.0,79,0.00,,CLR,0.00,VWS V14.01,2013-12-17 03:26:00,
2013-12-16 22:31:00,-12.8,-17.5,30.10,SW,226,0.0,0.0,79,0.00,,CLR,0.00,VWS V14.01,2013-12-17 03:31:00,
2013-12-16 22:36:00,-13.0,-17.6,30.10,SW,226,0.0,0.0,79,0.00,,CLR,0.00,VWS V14.01,2013-12-17 03:36:00,
2013-12-16 22:41:00,-13.0,-17.6,30.10,SW,226,0.0,0.0,79,0.00,,CLR,0.00,VWS V14.01,2013-12-17 03:41:00,
2013-12-16 22:46:00,-13.0,-17.6,30.10,SW,226,0.0,0.0,79,0.00,,CLR,0.00,VWS V14.01,2013-12-17 03:46:00,
2013-12-16 22:51:00,-13.4,-18.0,30.10,SW,226,0.0,0.0,79,0.00,,CLR,0.00,VWS V14.01,2013-12-17 03:51:00,
2013-12-16 22:56:00,-13.4,-18.0,30.10,SW,226,0.0,0.0,79,0.00,,CLR,0.00,VWS V14.01,2013-12-17 03:56:00,
2013-12-16 23:01:00,-13.5,-18.2,30.10,SW,226,0.0,0.0,79,0.00,,CLR,0.00,VWS V14.01,2013-12-17 04:01:00,
2013-12-16 23:06:00,-13.5,-18.2,30.10,SW,226,0.0,0.0,79,0.00,,CLR,0.00,VWS V14.01,2013-12-17 04:06:00,
2013-12-16 23:11:00,-13.5,-18.2,30.10,SW,226,0.0,0.0,79,0.00,,CLR,0.00,VWS V14.01,2013-12-17 04:11:00,
2013-12-16 23:16:00,-13.9,-18.5,30.10,SW,226,0.0,0.0,79,0.00,,CLR,0.00,VWS V14.01,2013-12-17 04:16:00,
2013-12-16 23:21:00,-14.1,-18.7,30.10,SW,226,0.0,0.0,79,0.00,,CLR,0.00,VWS V14.01,2013-12-17 04:21:00,
2013-12-16 23:26:00,-14.3,-18.9,30.10,SW,226,0.0,0.0,79,0.00,,CLR,0.00,VWS V14.01,2013-12-17 04:26:00,
2013-12-16 23:31:00,-14.3,-18.9,30.10,SW,226,0.0,0.0,79,0.00,,CLR,0.00,VWS V14.01,2013-12-17 04:31:00,
2013-12-16 23:36:00,-14.4,-19.0,30.10,SW,226,0.0,0.0,79,0.00,,CLR,0.00,VWS V14.01,2013-12-17 04:36:00,
2013-12-16 23:41:00,-14.4,-19.0,30.10,SW,226,0.0,0.0,79,0.00,,CLR,0.00,VWS V14.01,2013-12-17 04:41:00,
2013-12-16 23:46:00,-14.4,-19.0,30.10,SW,226,0.0,0.0,79,0.00,,CLR,0.00,VWS V14.01,2013-12-17 04:46:00,
2013-12-16 23:51:00,-14.4,-19.0,30.10,SW,226,0.0,0.0,79,0.00,,CLR,0.00,VWS V14.01,2013-12-17 04:51:00,
2013-12-16 23:56:00,-14.4,-19.0,30.10,SW,226,0.0,0.0,79,0.00,,CLR,0.00,VWS V14.01,2013-12-17 04:56:00,